sensor_id;sensor_type;location;lat;lon;timestamp;P1;durP1;ratioP1;P2;durP2;ratioP2
81229;SDS011;70701;44.452;18.652;2023-10-08T00:02:44;28.80;;;18.50;;
81229;SDS011;70701;44.452;18.652;2023-10-08T00:05:10;27.60;;;17.53;;
81229;SDS011;70701;44.452;18.652;2023-10-08T00:07:36;30.33;;;20.60;;
81229;SDS011;70701;44.452;18.652;2023-10-08T00:10:01;29.00;;;17.90;;
81229;SDS011;70701;44.452;18.652;2023-10-08T00:12:27;28.67;;;17.97;;
81229;SDS011;70701;44.452;18.652;2023-10-08T00:14:54;31.17;;;18.00;;
81229;SDS011;70701;44.452;18.652;2023-10-08T00:17:20;27.63;;;18.00;;
81229;SDS011;70701;44.452;18.652;2023-10-08T00:19:46;27.00;;;18.50;;
81229;SDS011;70701;44.452;18.652;2023-10-08T00:22:17;27.47;;;17.20;;
81229;SDS011;70701;44.452;18.652;2023-10-08T00:24:44;31.73;;;18.53;;
81229;SDS011;70701;44.452;18.652;2023-10-08T00:27:20;33.80;;;18.27;;
81229;SDS011;70701;44.452;18.652;2023-10-08T00:29:47;29.87;;;18.93;;
81229;SDS011;70701;44.452;18.652;2023-10-08T00:32:12;26.77;;;18.40;;
81229;SDS011;70701;44.452;18.652;2023-10-08T00:34:39;30.97;;;18.97;;
81229;SDS011;70701;44.452;18.652;2023-10-08T00:37:07;27.37;;;17.10;;
81229;SDS011;70701;44.452;18.652;2023-10-08T00:39:39;29.10;;;17.27;;
81229;SDS011;70701;44.452;18.652;2023-10-08T00:42:06;27.07;;;16.27;;
81229;SDS011;70701;44.452;18.652;2023-10-08T00:44:38;27.57;;;18.03;;
81229;SDS011;70701;44.452;18.652;2023-10-08T00:47:21;26.45;;;17.35;;
81229;SDS011;70701;44.452;18.652;2023-10-08T00:49:51;24.77;;;16.20;;
81229;SDS011;70701;44.452;18.652;2023-10-08T00:52:28;24.77;;;16.57;;
81229;SDS011;70701;44.452;18.652;2023-10-08T00:54:55;29.07;;;17.67;;
81229;SDS011;70701;44.452;18.652;2023-10-08T00:57:30;25.13;;;17.40;;
81229;SDS011;70701;44.452;18.652;2023-10-08T01:00:00;24.63;;;14.83;;
81229;SDS011;70701;44.452;18.652;2023-10-08T01:02:27;25.97;;;15.87;;
81229;SDS011;70701;44.452;18.652;2023-10-08T01:05:08;27.30;;;16.43;;
81229;SDS011;70701;44.452;18.652;2023-10-08T01:07:36;24.87;;;16.37;;
81229;SDS011;70701;44.452;18.652;2023-10-08T01:10:02;23.63;;;15.27;;
81229;SDS011;70701;44.452;18.652;2023-10-08T01:12:35;23.77;;;15.73;;
81229;SDS011;70701;44.452;18.652;2023-10-08T01:15:20;20.07;;;14.07;;
81229;SDS011;70701;44.452;18.652;2023-10-08T01:17:53;22.42;;;14.38;;
81229;SDS011;70701;44.452;18.652;2023-10-08T01:20:26;22.27;;;14.83;;
81229;SDS011;70701;44.452;18.652;2023-10-08T01:22:58;24.20;;;15.10;;
81229;SDS011;70701;44.452;18.652;2023-10-08T01:25:28;30.87;;;17.43;;
81229;SDS011;70701;44.452;18.652;2023-10-08T01:27:56;25.53;;;14.97;;
81229;SDS011;70701;44.452;18.652;2023-10-08T01:30:26;23.03;;;15.30;;
81229;SDS011;70701;44.452;18.652;2023-10-08T01:32:53;24.93;;;15.27;;
81229;SDS011;70701;44.452;18.652;2023-10-08T01:35:18;19.73;;;14.20;;
81229;SDS011;70701;44.452;18.652;2023-10-08T01:37:50;23.83;;;15.00;;
81229;SDS011;70701;44.452;18.652;2023-10-08T01:40:16;22.30;;;14.50;;
81229;SDS011;70701;44.452;18.652;2023-10-08T01:42:43;21.97;;;14.17;;
81229;SDS011;70701;44.452;18.652;2023-10-08T01:45:09;22.03;;;14.90;;
81229;SDS011;70701;44.452;18.652;2023-10-08T01:47:38;21.93;;;14.37;;
81229;SDS011;70701;44.452;18.652;2023-10-08T01:50:03;24.70;;;15.57;;
81229;SDS011;70701;44.452;18.652;2023-10-08T01:52:49;23.30;;;14.80;;
81229;SDS011;70701;44.452;18.652;2023-10-08T01:55:14;22.57;;;14.43;;
81229;SDS011;70701;44.452;18.652;2023-10-08T01:57:45;21.33;;;14.03;;
81229;SDS011;70701;44.452;18.652;2023-10-08T02:00:12;26.37;;;15.03;;
81229;SDS011;70701;44.452;18.652;2023-10-08T02:05:15;23.20;;;13.70;;
81229;SDS011;70701;44.452;18.652;2023-10-08T02:07:44;22.63;;;14.17;;
81229;SDS011;70701;44.452;18.652;2023-10-08T02:10:11;20.37;;;14.57;;
81229;SDS011;70701;44.452;18.652;2023-10-08T02:12:38;23.50;;;14.90;;
81229;SDS011;70701;44.452;18.652;2023-10-08T02:15:04;24.37;;;15.27;;
81229;SDS011;70701;44.452;18.652;2023-10-08T02:17:32;20.93;;;15.03;;
81229;SDS011;70701;44.452;18.652;2023-10-08T02:19:58;24.30;;;14.70;;
81229;SDS011;70701;44.452;18.652;2023-10-08T02:22:24;21.93;;;13.87;;
81229;SDS011;70701;44.452;18.652;2023-10-08T02:24:49;25.53;;;15.13;;
81229;SDS011;70701;44.452;18.652;2023-10-08T02:27:16;23.40;;;14.97;;
81229;SDS011;70701;44.452;18.652;2023-10-08T02:29:41;25.30;;;15.73;;
81229;SDS011;70701;44.452;18.652;2023-10-08T02:32:07;23.60;;;15.47;;
81229;SDS011;70701;44.452;18.652;2023-10-08T02:34:33;23.77;;;15.93;;
81229;SDS011;70701;44.452;18.652;2023-10-08T02:37:00;22.03;;;14.40;;
81229;SDS011;70701;44.452;18.652;2023-10-08T02:39:28;21.77;;;13.60;;
81229;SDS011;70701;44.452;18.652;2023-10-08T02:42:00;20.90;;;14.50;;
81229;SDS011;70701;44.452;18.652;2023-10-08T02:44:26;21.83;;;14.87;;
81229;SDS011;70701;44.452;18.652;2023-10-08T02:46:52;22.23;;;14.93;;
81229;SDS011;70701;44.452;18.652;2023-10-08T02:49:19;23.60;;;13.77;;
81229;SDS011;70701;44.452;18.652;2023-10-08T02:51:46;23.53;;;14.83;;
81229;SDS011;70701;44.452;18.652;2023-10-08T02:54:18;25.90;;;15.23;;
81229;SDS011;70701;44.452;18.652;2023-10-08T02:56:49;23.03;;;14.53;;
81229;SDS011;70701;44.452;18.652;2023-10-08T02:59:17;19.83;;;14.00;;
81229;SDS011;70701;44.452;18.652;2023-10-08T03:01:47;20.70;;;14.53;;
81229;SDS011;70701;44.452;18.652;2023-10-08T03:04:15;20.37;;;14.30;;
81229;SDS011;70701;44.452;18.652;2023-10-08T03:06:44;21.90;;;13.30;;
81229;SDS011;70701;44.452;18.652;2023-10-08T03:09:15;22.40;;;14.23;;
81229;SDS011;70701;44.452;18.652;2023-10-08T03:11:57;19.77;;;12.97;;
81229;SDS011;70701;44.452;18.652;2023-10-08T03:14:24;23.33;;;14.50;;
81229;SDS011;70701;44.452;18.652;2023-10-08T03:17:07;23.43;;;14.80;;
81229;SDS011;70701;44.452;18.652;2023-10-08T03:19:33;22.10;;;14.03;;
81229;SDS011;70701;44.452;18.652;2023-10-08T03:22:00;26.47;;;14.17;;
81229;SDS011;70701;44.452;18.652;2023-10-08T03:24:29;20.37;;;14.27;;
81229;SDS011;70701;44.452;18.652;2023-10-08T03:26:56;24.00;;;14.60;;
81229;SDS011;70701;44.452;18.652;2023-10-08T03:29:46;21.67;;;13.13;;
81229;SDS011;70701;44.452;18.652;2023-10-08T03:32:14;18.77;;;13.43;;
81229;SDS011;70701;44.452;18.652;2023-10-08T03:34:46;21.97;;;13.70;;
81229;SDS011;70701;44.452;18.652;2023-10-08T03:37:18;27.43;;;15.07;;
81229;SDS011;70701;44.452;18.652;2023-10-08T03:39:48;27.10;;;16.23;;
81229;SDS011;70701;44.452;18.652;2023-10-08T03:42:37;24.37;;;15.83;;
81229;SDS011;70701;44.452;18.652;2023-10-08T03:45:06;28.80;;;15.77;;
81229;SDS011;70701;44.452;18.652;2023-10-08T03:47:37;26.73;;;16.30;;
81229;SDS011;70701;44.452;18.652;2023-10-08T03:50:07;23.87;;;16.20;;
81229;SDS011;70701;44.452;18.652;2023-10-08T03:52:35;25.60;;;17.47;;
81229;SDS011;70701;44.452;18.652;2023-10-08T03:55:05;25.87;;;16.63;;
81229;SDS011;70701;44.452;18.652;2023-10-08T03:57:40;22.83;;;16.23;;
81229;SDS011;70701;44.452;18.652;2023-10-08T04:00:11;26.70;;;17.17;;
81229;SDS011;70701;44.452;18.652;2023-10-08T04:02:45;28.40;;;18.93;;
81229;SDS011;70701;44.452;18.652;2023-10-08T04:05:23;36.10;;;20.30;;
81229;SDS011;70701;44.452;18.652;2023-10-08T04:07:57;32.23;;;20.10;;
81229;SDS011;70701;44.452;18.652;2023-10-08T04:10:29;26.30;;;16.43;;
81229;SDS011;70701;44.452;18.652;2023-10-08T04:13:24;21.10;;;13.13;;
81229;SDS011;70701;44.452;18.652;2023-10-08T04:15:50;25.13;;;13.80;;
81229;SDS011;70701;44.452;18.652;2023-10-08T04:18:15;21.47;;;13.77;;
81229;SDS011;70701;44.452;18.652;2023-10-08T04:20:41;20.77;;;13.00;;
81229;SDS011;70701;44.452;18.652;2023-10-08T04:23:25;21.73;;;14.33;;
81229;SDS011;70701;44.452;18.652;2023-10-08T04:25:51;18.87;;;13.53;;
81229;SDS011;70701;44.452;18.652;2023-10-08T04:28:20;22.57;;;13.87;;
81229;SDS011;70701;44.452;18.652;2023-10-08T04:30:46;20.47;;;13.40;;
81229;SDS011;70701;44.452;18.652;2023-10-08T04:33:15;26.23;;;14.63;;
81229;SDS011;70701;44.452;18.652;2023-10-08T04:35:42;17.80;;;13.10;;
81229;SDS011;70701;44.452;18.652;2023-10-08T04:38:20;23.40;;;13.83;;
81229;SDS011;70701;44.452;18.652;2023-10-08T04:40:51;21.37;;;13.43;;
81229;SDS011;70701;44.452;18.652;2023-10-08T04:43:21;25.30;;;13.07;;
81229;SDS011;70701;44.452;18.652;2023-10-08T04:45:56;22.10;;;14.33;;
81229;SDS011;70701;44.452;18.652;2023-10-08T04:48:29;22.00;;;13.50;;
81229;SDS011;70701;44.452;18.652;2023-10-08T04:50:58;24.30;;;14.70;;
81229;SDS011;70701;44.452;18.652;2023-10-08T04:53:29;22.20;;;13.73;;
81229;SDS011;70701;44.452;18.652;2023-10-08T04:56:05;22.30;;;13.23;;
81229;SDS011;70701;44.452;18.652;2023-10-08T04:58:38;19.47;;;13.13;;
81229;SDS011;70701;44.452;18.652;2023-10-08T05:01:06;20.83;;;13.03;;
81229;SDS011;70701;44.452;18.652;2023-10-08T05:04:00;20.87;;;12.27;;
81229;SDS011;70701;44.452;18.652;2023-10-08T05:06:30;18.02;;;11.48;;
81229;SDS011;70701;44.452;18.652;2023-10-08T05:09:00;21.85;;;13.80;;
81229;SDS011;70701;44.452;18.652;2023-10-08T05:11:37;20.90;;;13.37;;
81229;SDS011;70701;44.452;18.652;2023-10-08T05:14:32;24.23;;;16.33;;
81229;SDS011;70701;44.452;18.652;2023-10-08T05:16:58;32.47;;;19.33;;
81229;SDS011;70701;44.452;18.652;2023-10-08T05:19:37;36.00;;;22.00;;
81229;SDS011;70701;44.452;18.652;2023-10-08T05:22:12;27.83;;;16.50;;
81229;SDS011;70701;44.452;18.652;2023-10-08T05:24:55;23.87;;;14.77;;
81229;SDS011;70701;44.452;18.652;2023-10-08T05:27:35;21.47;;;14.07;;
81229;SDS011;70701;44.452;18.652;2023-10-08T05:30:11;21.67;;;13.27;;
81229;SDS011;70701;44.452;18.652;2023-10-08T05:32:41;20.37;;;13.40;;
81229;SDS011;70701;44.452;18.652;2023-10-08T05:35:32;18.70;;;13.30;;
81229;SDS011;70701;44.452;18.652;2023-10-08T05:38:07;21.17;;;12.93;;
81229;SDS011;70701;44.452;18.652;2023-10-08T05:40:49;21.50;;;13.17;;
81229;SDS011;70701;44.452;18.652;2023-10-08T05:43:39;20.55;;;12.55;;
81229;SDS011;70701;44.452;18.652;2023-10-08T05:46:06;20.52;;;12.05;;
81229;SDS011;70701;44.452;18.652;2023-10-08T05:49:04;17.20;;;12.27;;
81229;SDS011;70701;44.452;18.652;2023-10-08T05:51:34;19.00;;;13.30;;
81229;SDS011;70701;44.452;18.652;2023-10-08T05:54:17;20.33;;;12.90;;
81229;SDS011;70701;44.452;18.652;2023-10-08T05:56:53;24.07;;;14.57;;
81229;SDS011;70701;44.452;18.652;2023-10-08T05:59:41;18.57;;;12.57;;
81229;SDS011;70701;44.452;18.652;2023-10-08T06:02:20;20.57;;;14.57;;
81229;SDS011;70701;44.452;18.652;2023-10-08T06:04:53;21.75;;;14.00;;
81229;SDS011;70701;44.452;18.652;2023-10-08T06:07:55;17.63;;;11.77;;
81229;SDS011;70701;44.452;18.652;2023-10-08T06:10:31;18.30;;;12.77;;
81229;SDS011;70701;44.452;18.652;2023-10-08T06:12:58;22.17;;;13.40;;
81229;SDS011;70701;44.452;18.652;2023-10-08T06:15:36;21.40;;;13.20;;
81229;SDS011;70701;44.452;18.652;2023-10-08T06:18:22;19.07;;;12.07;;
81229;SDS011;70701;44.452;18.652;2023-10-08T06:20:52;19.07;;;12.40;;
81229;SDS011;70701;44.452;18.652;2023-10-08T06:23:20;20.53;;;13.43;;
81229;SDS011;70701;44.452;18.652;2023-10-08T06:25:51;19.00;;;13.43;;
81229;SDS011;70701;44.452;18.652;2023-10-08T06:28:30;25.03;;;14.73;;
81229;SDS011;70701;44.452;18.652;2023-10-08T06:31:00;23.50;;;15.37;;
81229;SDS011;70701;44.452;18.652;2023-10-08T06:33:27;22.93;;;14.47;;
81229;SDS011;70701;44.452;18.652;2023-10-08T06:36:02;28.30;;;17.23;;
81229;SDS011;70701;44.452;18.652;2023-10-08T06:38:44;30.20;;;20.07;;
81229;SDS011;70701;44.452;18.652;2023-10-08T06:41:14;29.37;;;20.40;;
81229;SDS011;70701;44.452;18.652;2023-10-08T06:43:47;29.80;;;17.83;;
81229;SDS011;70701;44.452;18.652;2023-10-08T06:46:30;29.17;;;17.57;;
81229;SDS011;70701;44.452;18.652;2023-10-08T06:49:00;25.27;;;18.30;;
81229;SDS011;70701;44.452;18.652;2023-10-08T06:51:28;28.10;;;18.80;;
81229;SDS011;70701;44.452;18.652;2023-10-08T06:53:56;30.67;;;19.27;;
81229;SDS011;70701;44.452;18.652;2023-10-08T06:56:25;32.77;;;20.23;;
81229;SDS011;70701;44.452;18.652;2023-10-08T06:58:50;32.43;;;18.70;;
81229;SDS011;70701;44.452;18.652;2023-10-08T07:01:19;27.17;;;17.17;;
81229;SDS011;70701;44.452;18.652;2023-10-08T07:03:50;30.13;;;17.97;;
81229;SDS011;70701;44.452;18.652;2023-10-08T07:06:17;28.10;;;19.57;;
81229;SDS011;70701;44.452;18.652;2023-10-08T07:08:57;32.30;;;19.73;;
81229;SDS011;70701;44.452;18.652;2023-10-08T07:11:25;25.77;;;18.93;;
81229;SDS011;70701;44.452;18.652;2023-10-08T07:13:54;25.53;;;17.37;;
81229;SDS011;70701;44.452;18.652;2023-10-08T07:16:21;25.13;;;15.60;;
81229;SDS011;70701;44.452;18.652;2023-10-08T07:18:46;24.23;;;15.27;;
81229;SDS011;70701;44.452;18.652;2023-10-08T07:21:20;16.35;;;10.10;;
81229;SDS011;70701;44.452;18.652;2023-10-08T07:26:23;17.02;;;10.45;;
81229;SDS011;70701;44.452;18.652;2023-10-08T07:28:50;19.40;;;11.23;;
81229;SDS011;70701;44.452;18.652;2023-10-08T07:31:21;17.98;;;10.75;;
81229;SDS011;70701;44.452;18.652;2023-10-08T07:33:51;15.95;;;10.85;;
81229;SDS011;70701;44.452;18.652;2023-10-08T07:36:25;16.30;;;11.10;;
81229;SDS011;70701;44.452;18.652;2023-10-08T07:38:52;15.25;;;9.98;;
81229;SDS011;70701;44.452;18.652;2023-10-08T07:41:18;15.65;;;10.05;;
81229;SDS011;70701;44.452;18.652;2023-10-08T07:43:46;20.73;;;12.15;;
81229;SDS011;70701;44.452;18.652;2023-10-08T07:46:23;18.73;;;12.93;;
81229;SDS011;70701;44.452;18.652;2023-10-08T07:48:53;20.75;;;13.65;;
81229;SDS011;70701;44.452;18.652;2023-10-08T07:51:20;21.50;;;12.73;;
81229;SDS011;70701;44.452;18.652;2023-10-08T07:53:49;21.60;;;13.77;;
81229;SDS011;70701;44.452;18.652;2023-10-08T07:56:23;19.23;;;13.85;;
81229;SDS011;70701;44.452;18.652;2023-10-08T07:58:50;20.10;;;11.85;;
81229;SDS011;70701;44.452;18.652;2023-10-08T08:01:16;16.33;;;11.13;;
81229;SDS011;70701;44.452;18.652;2023-10-08T08:03:42;19.38;;;12.85;;
81229;SDS011;70701;44.452;18.652;2023-10-08T08:06:10;20.73;;;12.75;;
81229;SDS011;70701;44.452;18.652;2023-10-08T08:08:36;27.50;;;17.90;;
81229;SDS011;70701;44.452;18.652;2023-10-08T08:11:06;21.05;;;13.18;;
81229;SDS011;70701;44.452;18.652;2023-10-08T08:16:12;26.60;;;16.20;;
81229;SDS011;70701;44.452;18.652;2023-10-08T08:18:50;22.23;;;13.90;;
81229;SDS011;70701;44.452;18.652;2023-10-08T08:21:18;22.13;;;15.57;;
81229;SDS011;70701;44.452;18.652;2023-10-08T08:23:46;25.65;;;16.63;;
81229;SDS011;70701;44.452;18.652;2023-10-08T08:26:14;26.58;;;16.95;;
81229;SDS011;70701;44.452;18.652;2023-10-08T08:28:58;35.03;;;23.17;;
81229;SDS011;70701;44.452;18.652;2023-10-08T08:31:30;25.08;;;18.05;;
81229;SDS011;70701;44.452;18.652;2023-10-08T08:34:00;35.85;;;23.90;;
81229;SDS011;70701;44.452;18.652;2023-10-08T08:36:39;29.83;;;21.58;;
81229;SDS011;70701;44.452;18.652;2023-10-08T08:39:11;25.55;;;18.63;;
81229;SDS011;70701;44.452;18.652;2023-10-08T08:41:49;26.23;;;17.15;;
81229;SDS011;70701;44.452;18.652;2023-10-08T08:44:19;38.00;;;23.80;;
81229;SDS011;70701;44.452;18.652;2023-10-08T08:46:45;27.92;;;17.42;;
81229;SDS011;70701;44.452;18.652;2023-10-08T08:49:12;31.88;;;19.50;;
81229;SDS011;70701;44.452;18.652;2023-10-08T08:51:39;28.75;;;17.48;;
81229;SDS011;70701;44.452;18.652;2023-10-08T08:54:06;24.92;;;16.25;;
81229;SDS011;70701;44.452;18.652;2023-10-08T08:56:36;30.33;;;17.45;;
81229;SDS011;70701;44.452;18.652;2023-10-08T08:59:06;25.00;;;16.02;;
81229;SDS011;70701;44.452;18.652;2023-10-08T09:01:39;26.92;;;16.70;;
81229;SDS011;70701;44.452;18.652;2023-10-08T09:04:05;36.55;;;21.45;;
81229;SDS011;70701;44.452;18.652;2023-10-08T09:06:34;31.95;;;18.38;;
81229;SDS011;70701;44.452;18.652;2023-10-08T09:09:07;28.65;;;18.55;;
81229;SDS011;70701;44.452;18.652;2023-10-08T09:11:47;29.13;;;17.67;;
81229;SDS011;70701;44.452;18.652;2023-10-08T09:14:26;28.92;;;17.58;;
81229;SDS011;70701;44.452;18.652;2023-10-08T09:16:58;31.08;;;17.77;;
81229;SDS011;70701;44.452;18.652;2023-10-08T09:19:25;27.50;;;16.15;;
81229;SDS011;70701;44.452;18.652;2023-10-08T09:22:01;21.70;;;14.75;;
81229;SDS011;70701;44.452;18.652;2023-10-08T09:24:36;21.38;;;14.18;;
81229;SDS011;70701;44.452;18.652;2023-10-08T09:27:07;35.10;;;25.92;;
81229;SDS011;70701;44.452;18.652;2023-10-08T09:29:39;29.33;;;15.77;;
81229;SDS011;70701;44.452;18.652;2023-10-08T09:32:07;39.03;;;26.15;;
81229;SDS011;70701;44.452;18.652;2023-10-08T09:34:35;52.92;;;33.78;;
81229;SDS011;70701;44.452;18.652;2023-10-08T09:37:01;44.78;;;29.23;;
81229;SDS011;70701;44.452;18.652;2023-10-08T09:39:28;28.63;;;19.23;;
81229;SDS011;70701;44.452;18.652;2023-10-08T09:42:00;35.15;;;22.80;;
81229;SDS011;70701;44.452;18.652;2023-10-08T09:44:36;25.63;;;17.67;;
81229;SDS011;70701;44.452;18.652;2023-10-08T09:47:06;22.70;;;14.30;;
81229;SDS011;70701;44.452;18.652;2023-10-08T09:52:19;19.08;;;12.05;;
81229;SDS011;70701;44.452;18.652;2023-10-08T09:54:52;29.92;;;18.38;;
81229;SDS011;70701;44.452;18.652;2023-10-08T09:57:25;25.70;;;16.23;;
81229;SDS011;70701;44.452;18.652;2023-10-08T09:59:53;30.23;;;19.02;;
81229;SDS011;70701;44.452;18.652;2023-10-08T10:02:19;29.98;;;17.67;;
81229;SDS011;70701;44.452;18.652;2023-10-08T10:04:51;29.67;;;19.77;;
81229;SDS011;70701;44.452;18.652;2023-10-08T10:07:18;37.13;;;22.15;;
81229;SDS011;70701;44.452;18.652;2023-10-08T10:09:46;37.53;;;23.55;;
81229;SDS011;70701;44.452;18.652;2023-10-08T10:12:21;42.85;;;24.80;;
81229;SDS011;70701;44.452;18.652;2023-10-08T10:14:52;34.97;;;20.77;;
81229;SDS011;70701;44.452;18.652;2023-10-08T10:17:22;24.13;;;16.00;;
81229;SDS011;70701;44.452;18.652;2023-10-08T10:19:53;26.23;;;17.50;;
81229;SDS011;70701;44.452;18.652;2023-10-08T10:24:58;25.30;;;16.58;;
81229;SDS011;70701;44.452;18.652;2023-10-08T10:27:29;22.88;;;16.10;;
81229;SDS011;70701;44.452;18.652;2023-10-08T10:30:04;20.90;;;14.93;;
81229;SDS011;70701;44.452;18.652;2023-10-08T10:32:36;20.85;;;12.00;;
81229;SDS011;70701;44.452;18.652;2023-10-08T10:35:02;20.05;;;13.05;;
81229;SDS011;70701;44.452;18.652;2023-10-08T10:37:31;18.88;;;13.15;;
81229;SDS011;70701;44.452;18.652;2023-10-08T10:40:07;22.88;;;14.68;;
81229;SDS011;70701;44.452;18.652;2023-10-08T10:42:38;17.02;;;9.77;;
81229;SDS011;70701;44.452;18.652;2023-10-08T10:45:14;15.85;;;9.68;;
81229;SDS011;70701;44.452;18.652;2023-10-08T10:48:00;15.32;;;9.40;;
81229;SDS011;70701;44.452;18.652;2023-10-08T10:50:40;17.50;;;11.27;;
81229;SDS011;70701;44.452;18.652;2023-10-08T10:53:25;16.13;;;10.82;;
81229;SDS011;70701;44.452;18.652;2023-10-08T10:55:52;24.50;;;14.38;;
81229;SDS011;70701;44.452;18.652;2023-10-08T10:58:35;18.77;;;12.18;;
81229;SDS011;70701;44.452;18.652;2023-10-08T11:01:06;19.63;;;10.77;;
81229;SDS011;70701;44.452;18.652;2023-10-08T11:03:50;19.00;;;10.95;;
81229;SDS011;70701;44.452;18.652;2023-10-08T11:06:17;17.98;;;10.50;;
81229;SDS011;70701;44.452;18.652;2023-10-08T11:08:56;18.67;;;12.07;;
81229;SDS011;70701;44.452;18.652;2023-10-08T11:11:26;16.25;;;9.75;;
81229;SDS011;70701;44.452;18.652;2023-10-08T11:13:55;18.65;;;10.65;;
81229;SDS011;70701;44.452;18.652;2023-10-08T11:16:25;17.35;;;10.07;;
81229;SDS011;70701;44.452;18.652;2023-10-08T11:18:52;16.80;;;9.77;;
81229;SDS011;70701;44.452;18.652;2023-10-08T11:21:23;18.55;;;9.55;;
81229;SDS011;70701;44.452;18.652;2023-10-08T11:23:50;15.43;;;10.70;;
81229;SDS011;70701;44.452;18.652;2023-10-08T11:26:37;17.20;;;9.20;;
81229;SDS011;70701;44.452;18.652;2023-10-08T11:29:19;17.67;;;12.18;;
81229;SDS011;70701;44.452;18.652;2023-10-08T11:31:51;17.45;;;9.88;;
81229;SDS011;70701;44.452;18.652;2023-10-08T11:34:17;17.70;;;11.15;;
81229;SDS011;70701;44.452;18.652;2023-10-08T11:36:52;18.00;;;9.95;;
81229;SDS011;70701;44.452;18.652;2023-10-08T11:39:18;15.20;;;9.10;;
81229;SDS011;70701;44.452;18.652;2023-10-08T11:41:57;17.23;;;10.15;;
81229;SDS011;70701;44.452;18.652;2023-10-08T11:44:42;16.17;;;9.48;;
81229;SDS011;70701;44.452;18.652;2023-10-08T11:47:08;15.85;;;10.02;;
81229;SDS011;70701;44.452;18.652;2023-10-08T11:49:40;15.90;;;9.10;;
81229;SDS011;70701;44.452;18.652;2023-10-08T11:52:15;15.45;;;9.55;;
81229;SDS011;70701;44.452;18.652;2023-10-08T11:54:42;17.83;;;9.50;;
81229;SDS011;70701;44.452;18.652;2023-10-08T11:57:16;13.52;;;8.90;;
81229;SDS011;70701;44.452;18.652;2023-10-08T11:59:47;15.20;;;9.25;;
81229;SDS011;70701;44.452;18.652;2023-10-08T12:02:13;17.00;;;10.27;;
81229;SDS011;70701;44.452;18.652;2023-10-08T12:04:42;17.58;;;10.75;;
81229;SDS011;70701;44.452;18.652;2023-10-08T12:07:10;16.65;;;10.32;;
81229;SDS011;70701;44.452;18.652;2023-10-08T12:09:36;16.63;;;10.75;;
81229;SDS011;70701;44.452;18.652;2023-10-08T12:12:05;18.92;;;10.85;;
81229;SDS011;70701;44.452;18.652;2023-10-08T12:14:37;16.05;;;10.27;;
81229;SDS011;70701;44.452;18.652;2023-10-08T12:17:03;19.77;;;11.07;;
81229;SDS011;70701;44.452;18.652;2023-10-08T12:19:39;20.35;;;12.07;;
81229;SDS011;70701;44.452;18.652;2023-10-08T12:22:08;15.88;;;9.75;;
81229;SDS011;70701;44.452;18.652;2023-10-08T12:24:34;17.27;;;10.00;;
81229;SDS011;70701;44.452;18.652;2023-10-08T12:27:00;18.13;;;10.68;;
81229;SDS011;70701;44.452;18.652;2023-10-08T12:29:28;17.15;;;9.57;;
81229;SDS011;70701;44.452;18.652;2023-10-08T12:31:54;18.15;;;11.43;;
81229;SDS011;70701;44.452;18.652;2023-10-08T12:34:19;18.20;;;9.88;;
81229;SDS011;70701;44.452;18.652;2023-10-08T12:36:48;20.05;;;12.25;;
81229;SDS011;70701;44.452;18.652;2023-10-08T12:39:13;19.70;;;11.75;;
81229;SDS011;70701;44.452;18.652;2023-10-08T12:41:43;21.10;;;12.45;;
81229;SDS011;70701;44.452;18.652;2023-10-08T12:44:09;21.48;;;14.45;;
81229;SDS011;70701;44.452;18.652;2023-10-08T12:46:40;21.50;;;12.75;;
81229;SDS011;70701;44.452;18.652;2023-10-08T12:49:09;27.13;;;17.08;;
81229;SDS011;70701;44.452;18.652;2023-10-08T12:51:35;24.58;;;14.40;;
81229;SDS011;70701;44.452;18.652;2023-10-08T12:54:06;21.45;;;13.85;;
81229;SDS011;70701;44.452;18.652;2023-10-08T12:56:33;19.90;;;13.00;;
81229;SDS011;70701;44.452;18.652;2023-10-08T12:59:19;20.58;;;12.95;;
81229;SDS011;70701;44.452;18.652;2023-10-08T13:01:46;21.90;;;13.73;;
81229;SDS011;70701;44.452;18.652;2023-10-08T13:04:19;24.20;;;12.65;;
81229;SDS011;70701;44.452;18.652;2023-10-08T13:06:57;24.77;;;13.70;;
81229;SDS011;70701;44.452;18.652;2023-10-08T13:09:26;29.13;;;16.65;;
81229;SDS011;70701;44.452;18.652;2023-10-08T13:11:52;29.95;;;17.30;;
81229;SDS011;70701;44.452;18.652;2023-10-08T13:14:18;28.38;;;16.23;;
81229;SDS011;70701;44.452;18.652;2023-10-08T13:16:43;30.80;;;15.40;;
81229;SDS011;70701;44.452;18.652;2023-10-08T13:19:10;24.88;;;15.10;;
81229;SDS011;70701;44.452;18.652;2023-10-08T13:21:36;30.73;;;16.08;;
81229;SDS011;70701;44.452;18.652;2023-10-08T13:24:02;26.02;;;16.33;;
81229;SDS011;70701;44.452;18.652;2023-10-08T13:26:30;25.08;;;14.52;;
81229;SDS011;70701;44.452;18.652;2023-10-08T13:28:57;25.98;;;14.60;;
81229;SDS011;70701;44.452;18.652;2023-10-08T13:31:27;26.33;;;15.88;;
81229;SDS011;70701;44.452;18.652;2023-10-08T13:33:53;23.70;;;13.10;;
81229;SDS011;70701;44.452;18.652;2023-10-08T13:36:21;22.88;;;12.75;;
81229;SDS011;70701;44.452;18.652;2023-10-08T13:38:49;24.50;;;10.85;;
81229;SDS011;70701;44.452;18.652;2023-10-08T13:41:17;17.48;;;10.60;;
81229;SDS011;70701;44.452;18.652;2023-10-08T13:43:46;19.58;;;10.10;;
81229;SDS011;70701;44.452;18.652;2023-10-08T13:46:16;16.38;;;10.32;;
81229;SDS011;70701;44.452;18.652;2023-10-08T13:48:44;22.92;;;11.68;;
81229;SDS011;70701;44.452;18.652;2023-10-08T13:51:15;25.92;;;12.80;;
81229;SDS011;70701;44.452;18.652;2023-10-08T13:54:03;17.35;;;9.85;;
81229;SDS011;70701;44.452;18.652;2023-10-08T13:56:34;17.40;;;9.63;;
81229;SDS011;70701;44.452;18.652;2023-10-08T13:59:03;20.15;;;10.50;;
81229;SDS011;70701;44.452;18.652;2023-10-08T14:01:37;23.98;;;12.50;;
81229;SDS011;70701;44.452;18.652;2023-10-08T14:04:06;19.90;;;12.60;;
81229;SDS011;70701;44.452;18.652;2023-10-08T14:06:33;23.38;;;13.95;;
81229;SDS011;70701;44.452;18.652;2023-10-08T14:09:05;25.48;;;13.85;;
81229;SDS011;70701;44.452;18.652;2023-10-08T14:11:37;23.23;;;12.90;;
81229;SDS011;70701;44.452;18.652;2023-10-08T14:14:03;19.90;;;12.88;;
81229;SDS011;70701;44.452;18.652;2023-10-08T14:16:39;25.10;;;12.90;;
81229;SDS011;70701;44.452;18.652;2023-10-08T14:19:09;19.77;;;11.43;;
81229;SDS011;70701;44.452;18.652;2023-10-08T14:21:40;30.38;;;16.70;;
81229;SDS011;70701;44.452;18.652;2023-10-08T14:24:23;32.15;;;16.70;;
81229;SDS011;70701;44.452;18.652;2023-10-08T14:26:52;26.35;;;14.30;;
81229;SDS011;70701;44.452;18.652;2023-10-08T14:29:20;20.75;;;11.93;;
81229;SDS011;70701;44.452;18.652;2023-10-08T14:31:46;20.10;;;10.82;;
81229;SDS011;70701;44.452;18.652;2023-10-08T14:34:14;23.17;;;13.02;;
81229;SDS011;70701;44.452;18.652;2023-10-08T14:36:49;18.90;;;11.85;;
81229;SDS011;70701;44.452;18.652;2023-10-08T14:39:36;22.42;;;12.90;;
81229;SDS011;70701;44.452;18.652;2023-10-08T14:42:24;18.20;;;9.63;;
81229;SDS011;70701;44.452;18.652;2023-10-08T14:45:08;20.27;;;10.65;;
81229;SDS011;70701;44.452;18.652;2023-10-08T14:47:39;21.27;;;9.80;;